Marin, Spain
Current Conditions -  °F | °C
As of 12:30 AM on Friday 19 Dec 2014 (Local Time) from LEVX Reporting Station
Overcast Overcast  
Wind Chill: 48°   Ceiling: 2100
Heat Index: 48°   Visibility: 6mi
Dew Point: 43°   Wind: 0mph
Humidity: 82%   Direction: NA
Pressure: 30.48"   Gusts: NA
Location:  42.38°N, 8.7°W
Report Text: LEVX 182330Z 00000KT 9999 OVC021 09/06 Q1032 NOSIG
Loading
Personal Weather Stations






























Interactive Weather Map New forecast layout! Learn more

10-Day Weather Forecast

Advertisements
Track Severe Weather on mobile